Latest Weather Observations for Nerriga

IDN60801

Issued at 4:32 pm EST Friday 29 May 2015 (issued every 30 minutes, with the page automatically refreshed every 10 minutes)

About weather observations | Map of weather stations | Latest weather observations for NSW | Other Formats
Station Details ID: 069128 Name: NERRIGA AWS Lat: -35.11 Lon: 150.08 Height: 622.0 m
Data from the previous 72 hours. | See also: Recent months at Nerriga
Date/Time
EST
Temp
°C
App
Temp
°C
Dew
Point
Rel
Hum
%
Delta-T
°C
Wind Press
QNH
hPa
Press
MSL
hPa
Rain
since 9 am
mm
Dir
 
Spd
km/h
Gust
km/h
Spd
kts
Gust
kts
29/04:30pm 13.8 10.4 5.7 58 4.0 WNW 13 19 7 10 1021.0 1021.0 0.0
29/04:00pm 15.0 10.9 6.3 56 4.3 WNW 17 26 9 14 1020.8 1020.8 0.0
29/03:30pm 15.3 10.7 5.5 52 4.8 WNW 19 26 10 14 1020.7 1020.7 0.0
29/03:00pm 15.7 11.1 5.6 51 5.0 W 19 28 10 15 1020.8 1020.8 0.0
29/02:30pm 15.9 10.3 5.5 50 5.1 WNW 24 33 13 18 1020.2 1020.3 0.0
29/02:00pm 15.9 11.1 5.5 50 5.1 W 20 28 11 15 1020.2 1020.3 0.0
29/01:30pm 15.9 11.4 6.1 52 4.9 WNW 19 33 10 18 1020.2 1020.3 0.0
29/01:00pm 15.1 10.5 5.6 53 4.7 W 19 28 10 15 1020.0 1020.0 0.0
29/12:30pm 15.6 11.7 6.9 56 4.4 W 17 26 9 14 1020.4 1020.4 0.0
29/12:00pm 15.6 11.7 6.9 56 4.4 W 17 26 9 14 1020.6 1020.6 0.0
29/11:30am 15.6 10.4 7.1 57 4.3 W 24 35 13 19 1021.1 1021.1 0.0
29/11:00am 16.0 13.4 9.4 65 3.5 WNW 13 22 7 12 1021.1 1021.1 0.0
29/10:30am 15.2 12.8 10.2 72 2.7 W 13 22 7 12 1021.0 1021.0 0.0
29/10:00am 13.9 11.2 9.1 73 2.5 WNW 13 22 7 12 1021.0 1021.0 0.0
29/09:30am 13.1 10.2 9.5 79 1.9 NW 15 22 8 12 1020.9 1020.9 0.0
29/09:00am 11.9 10.0 10.6 92 0.7 NW 11 13 6 7 1020.9 1020.9 3.0
29/08:30am 11.4 10.0 10.8 96 0.3 NW 9 13 5 7 1020.8 1020.8 3.0
29/08:00am 11.3 10.4 10.5 95 0.4 NW 6 7 3 4 1020.4 1020.4 3.0
29/07:30am 11.0 9.8 9.6 91 0.7 NW 6 9 3 5 1019.9 1019.9 3.0
29/07:00am 11.3 9.9 9.6 89 0.9 NW 7 13 4 7 1019.3 1019.3 3.0
29/06:30am 11.4 8.5 9.7 89 0.9 NW 15 20 8 11 1019.3 1019.3 3.0
29/06:00am 11.6 8.8 10.0 90 0.8 WNW 15 19 8 10 1019.0 1019.0 3.0
29/05:30am 11.4 9.4 10.3 93 0.6 NW 11 15 6 8 1018.9 1018.9 3.0
29/05:00am 11.4 9.1 10.3 93 0.6 NW 13 17 7 9 1018.2 1018.2 3.0
29/04:30am 12.0 9.0 10.6 91 0.7 WNW 17 22 9 12 1018.1 1018.1 3.0
29/04:00am 11.2 8.4 10.1 93 0.6 WNW 15 17 8 9 1018.1 1018.1 3.0
29/03:30am 11.5 7.8 10.2 92 0.7 NW 20 28 11 15 1018.0 1018.0 3.0
29/03:00am 11.4 7.8 10.5 94 0.5 WNW 20 32 11 17 1018.0 1018.0 3.0
29/02:30am 11.5 8.0 10.9 96 0.3 NW 20 28 11 15 1017.8 1017.8 3.0
29/02:00am 11.7 10.5 11.5 99 0.1 NW 9 17 5 9 1018.2 1018.2 3.0
29/01:30am 11.8 10.6 11.6 99 0.1 NW 9 13 5 7 1018.5 1018.5 2.0
29/01:00am 11.9 10.0 11.7 99 0.1 NW 13 19 7 10 1018.8 1018.7 1.2
29/12:30am 11.4 10.0 10.8 96 0.3 NNW 9 13 5 7 1019.0 1019.0 0.4
29/12:00am 11.3 9.8 10.7 96 0.3 NNW 9 13 5 7 1019.4 1019.4 0.4
 
Date/Time
EST
Temp
°C
App
Temp
°C
Dew
Point
Rel
Hum
%
Delta-T
°C
Wind Press
QNH
hPa
Press
MSL
hPa
Rain
since 9 am
mm
Dir
 
Spd
km/h
Gust
km/h
Spd
kts
Gust
kts
28/11:30pm 11.1 9.2 10.5 96 0.3 NNW 11 15 6 8 1019.6 1019.6 0.4
28/11:00pm 10.9 9.6 10.1 95 0.4 NNW 7 11 4 6 1019.8 1019.8 0.4
28/10:30pm 11.2 9.9 10.1 93 0.6 NNW 7 9 4 5 1019.9 1019.9 0.2
28/10:00pm 11.3 10.1 10.2 93 0.6 NNW 7 7 4 4 1020.5 1020.5 0.2
28/09:30pm 11.2 10.1 10.1 93 0.6 NNW 6 9 3 5 1020.7 1020.7 0.0
28/09:00pm 11.3 9.2 9.7 90 0.8 NNW 11 15 6 8 1020.6 1020.6 0.0
28/08:30pm 11.2 8.7 9.6 90 0.8 NNW 13 17 7 9 1020.7 1020.7 0.0
28/08:00pm 11.4 8.5 9.8 90 0.8 NW 15 19 8 10 1020.6 1020.6 0.0
28/07:30pm 11.4 7.6 9.8 90 0.8 NW 20 28 11 15 1020.6 1020.6 0.0
28/07:00pm 10.9 8.0 9.8 93 0.6 NW 15 24 8 13 1020.6 1020.6 0.0
28/06:30pm 10.4 8.6 9.3 93 0.6 NNW 9 13 5 7 1020.6 1020.6 0.0
28/06:00pm 10.7 8.8 9.1 90 0.8 NW 9 11 5 6 1020.5 1020.5 0.0
28/05:30pm 11.4 9.6 9.3 87 1.1 NW 9 13 5 7 1020.5 1020.5 0.0
28/05:00pm 11.9 9.3 9.5 85 1.3 NW 13 19 7 10 1020.7 1020.7 0.0
28/04:30pm 12.4 10.5 9.2 81 1.7 NNW 9 13 5 7 1020.7 1020.7 0.0
28/04:00pm 13.2 10.3 9.5 78 1.9 NW 15 24 8 13 1020.9 1020.9 0.0
28/03:30pm 13.5 11.1 10.1 80 1.8 WNW 13 22 7 12 1020.8 1020.8 0.0
28/03:00pm 13.9 11.1 9.9 77 2.1 WNW 15 20 8 11 1020.9 1020.9 0.0
28/02:30pm 13.9 9.7 9.9 77 2.1 WNW 22 33 12 18 1020.8 1020.8 0.0
28/02:00pm 13.5 9.3 9.6 77 2.1 WNW 22 32 12 17 1021.0 1021.0 0.0
28/01:30pm 13.9 9.4 9.9 77 2.1 NW 24 33 13 18 1020.9 1020.9 0.0
28/01:00pm 14.8 10.8 9.0 68 3.0 WNW 20 28 11 15 1021.1 1021.1 0.0
28/12:30pm 15.4 11.5 9.5 68 3.2 NNW 20 28 11 15 1021.3 1021.3 0.0
28/12:00pm 15.3 14.0 9.9 70 2.9 WNW 7 13 4 7 1021.7 1021.8 0.0
28/11:30am 14.1 11.8 8.9 71 2.7 WNW 11 19 6 10 1022.5 1022.5 0.0
28/11:00am 13.4 12.1 9.1 75 2.2 NNW 6 13 3 7 1023.2 1023.3 0.0
28/10:30am 11.6 10.1 8.6 82 1.5 N 6 7 3 4 1023.5 1023.6 0.0
28/10:00am 10.6 9.6 8.9 89 0.9 N 4 6 2 3 1023.6 1023.7 0.0
28/09:30am 9.1 8.7 8.2 94 0.4 CALM 0 0 0 0 1023.8 1023.8 0.0
28/09:00am 7.5 6.0 6.8 95 0.3 N 4 6 2 3 1023.8 1023.8 0.2
28/08:30am 6.8 5.5 6.2 96 0.3 N 2 6 1 3 1023.9 1023.9 0.2
28/08:00am 6.6 5.8 6.5 99 0.0 CALM 0 0 0 0 1023.9 1023.9 0.2
28/07:30am 5.2 4.1 5.1 99 0.0 CALM 0 0 0 0 1023.9 1023.9 0.2
28/07:00am 5.1 3.9 4.8 98 0.1 CALM 0 0 0 0 1023.5 1023.6 0.2
28/06:30am 5.4 4.3 5.3 99 0.0 CALM 0 0 0 0 1023.2 1023.3 0.2
28/06:00am 6.3 5.5 6.3 100 0.0 CALM 0 0 0 0 1022.9 1023.0 0.2
28/05:30am 5.7 4.7 5.6 99 0.0 CALM 0 0 0 0 1022.5 1022.5 0.2
28/05:00am 5.2 4.1 5.1 99 0.0 CALM 0 4 0 2 1022.4 1022.4 0.2
28/04:30am 5.0 3.5 4.9 99 0.0 N 2 4 1 2 1022.5 1022.5 0.2
28/04:00am 3.6 1.3 3.0 96 0.3 N 4 4 2 2 1022.6 1022.6 0.2
28/03:30am 5.6 3.8 5.3 98 0.1 N 4 4 2 2 1022.8 1022.8 0.2
28/03:00am 6.3 4.6 5.9 97 0.2 N 4 4 2 2 1022.8 1022.8 0.2
28/02:30am 6.8 4.8 6.1 95 0.3 N 6 6 3 3 1023.1 1023.2 0.2
28/02:00am 7.1 5.1 6.4 95 0.3 N 6 9 3 5 1023.1 1023.2 0.0
28/01:30am 7.3 5.5 7.0 98 0.1 N 6 7 3 4 1023.3 1023.4 0.0
28/01:00am 7.2 4.7 6.6 96 0.3 WNW 9 11 5 6 1023.3 1023.4 0.0
28/12:30am 7.5 5.5 6.9 96 0.3 W 7 9 4 5 1023.3 1023.4 0.0
28/12:00am 7.1 5.2 6.7 97 0.2 W 6 7 3 4 1023.5 1023.6 0.0
 
Date/Time
EST
Temp
°C
App
Temp
°C
Dew
Point
Rel
Hum
%
Delta-T
°C
Wind Press
QNH
hPa
Press
MSL
hPa
Rain
since 9 am
mm
Dir
 
Spd
km/h
Gust
km/h
Spd
kts
Gust
kts
27/11:30pm 8.0 6.6 7.2 95 0.4 W 4 6 2 3 1023.5 1023.6 0.0
27/11:00pm 7.5 5.8 6.1 91 0.7 W 4 7 2 4 1023.5 1023.6 0.0
27/10:30pm 8.5 6.7 7.1 91 0.7 W 6 7 3 4 1023.6 1023.7 0.0
27/10:00pm 8.1 6.9 6.6 90 0.7 W 2 6 1 3 1023.9 1023.9 0.0
27/09:30pm 8.5 7.1 7.4 93 0.5 W 4 6 2 3 1023.6 1023.7 0.0
27/09:00pm 8.6 6.7 7.4 92 0.6 W 7 9 4 5 1023.8 1023.8 0.0
27/08:30pm 8.1 7.4 7.0 93 0.5 CALM 0 0 0 0 1023.9 1023.9 0.0
27/08:00pm 8.0 6.8 6.6 91 0.7 W 2 4 1 2 1023.8 1023.8 0.0
27/07:30pm 9.4 8.7 7.0 85 1.2 CALM 0 6 0 3 1023.5 1023.6 0.0
27/07:00pm 10.4 8.4 7.3 81 1.5 W 7 13 4 7 1023.3 1023.4 0.0
27/06:30pm 9.9 8.9 7.2 83 1.3 W 2 7 1 4 1023.0 1023.1 0.0
27/06:00pm 10.3 8.4 7.4 82 1.4 W 7 11 4 6 1022.8 1022.8 0.0
27/05:30pm 11.0 8.3 7.5 79 1.7 W 11 15 6 8 1022.6 1022.6 0.0
27/05:00pm 12.2 10.4 8.1 76 2.1 W 7 11 4 6 1022.5 1022.5 0.0
27/04:30pm 13.5 10.2 8.1 70 2.8 W 15 19 8 10 1022.1 1022.1 0.0
27/04:00pm 14.5 10.8 8.0 65 3.3 WNW 17 22 9 12 1022.1 1022.1 0.0
27/03:30pm 15.3 11.3 8.1 62 3.7 W 19 26 10 14 1022.1 1022.1 0.0
27/03:00pm 15.8 11.5 7.8 59 4.1 WNW 20 28 11 15 1022.1 1022.1 0.0
27/02:30pm 16.2 12.2 8.2 59 4.2 W 19 28 10 15 1021.9 1022.0 0.0
27/02:00pm 15.8 10.9 7.1 56 4.4 WNW 22 30 12 16 1021.9 1022.0 0.0
27/01:30pm 16.6 12.3 7.8 56 4.6 W 20 30 11 16 1022.1 1022.1 0.0
27/01:00pm 16.2 12.9 6.3 52 5.0 WNW 13 19 7 10 1022.4 1022.4 0.0
27/12:30pm 15.4 10.8 5.6 52 4.8 WNW 19 26 10 14 1022.7 1022.7 0.0
27/12:00pm 15.3 11.6 6.1 54 4.6 W 15 20 8 11 1023.3 1023.4 0.0
27/11:30am 14.2 10.3 5.3 55 4.3 WNW 15 24 8 13 1023.6 1023.7 0.0
27/11:00am 13.2 11.0 6.3 63 3.4 WNW 7 11 4 6 1024.3 1024.4 0.0
27/10:30am 11.7 9.8 6.6 71 2.5 NW 6 9 3 5 1024.7 1024.8 0.0
27/10:00am 9.7 7.9 7.1 84 1.3 ENE 6 9 3 5 1024.9 1025.0 0.0
27/09:30am 7.9 6.1 7.0 94 0.4 ENE 6 7 3 4 1025.0 1025.1 0.0
27/09:00am 7.0 5.2 7.0 100 0.0 ENE 6 6 3 3 1024.8 1024.9 0.0
27/08:30am 5.8 4.1 5.8 100 0.0 ENE 4 6 2 3 1024.9 1025.0 0.0
27/08:00am 4.9 3.0 4.9 100 0.0 ENE 4 6 2 3 1025.1 1025.2 0.0
27/07:30am 4.4 2.4 4.4 100 0.0 ENE 4 7 2 4 1024.7 1024.8 0.0
27/07:00am 4.2 2.2 4.2 100 0.0 ENE 4 6 2 3 1024.4 1024.5 0.0
27/06:30am 4.1 1.7 4.1 100 0.0 ENE 6 7 3 4 1024.1 1024.1 0.0
27/06:00am 3.6 1.1 3.5 99 0.0 ENE 6 7 3 4 1023.6 1023.7 0.0
27/05:30am 5.3 3.5 5.3 100 0.0 ENE 4 4 2 2 1023.5 1023.6 0.0
27/05:00am 5.0 3.1 5.0 100 0.0 ENE 4 6 2 3 1023.8 1023.8 0.0
27/04:30am 5.5 3.7 5.5 100 0.0 ENE 4 6 2 3 1024.1 1024.1 0.0
27/04:00am 6.1 4.1 6.1 100 0.0 ENE 6 7 3 4 1024.3 1024.4 0.0
27/03:30am 5.5 3.3 5.4 99 0.0 ENE 6 7 3 4 1024.5 1024.6 0.0
27/03:00am 5.7 3.9 5.6 99 0.0 ENE 4 6 2 3 1024.6 1024.7 0.0
27/02:30am 5.9 4.9 5.8 99 0.0 CALM 0 0 0 0 1024.7 1024.8 0.0
27/02:00am 5.8 4.8 5.5 98 0.1 CALM 0 0 0 0 1025.3 1025.4 0.0
27/01:30am 5.5 4.4 5.2 98 0.1 CALM 0 4 0 2 1025.1 1025.2 0.0
27/01:00am 6.6 5.4 6.5 99 0.0 ENE 2 2 1 1 1025.0 1025.1 0.0
27/12:30am 6.5 5.6 6.2 98 0.1 CALM 0 0 0 0 1025.5 1025.5 0.0
27/12:00am 7.1 6.4 6.8 98 0.1 CALM 0 2 0 1 1025.8 1025.9 0.0
 
Date/Time
EST
Temp
°C
App
Temp
°C
Dew
Point
Rel
Hum
%
Delta-T
°C
Wind Press
QNH
hPa
Press
MSL
hPa
Rain
since 9 am
mm
Dir
 
Spd
km/h
Gust
km/h
Spd
kts
Gust
kts
26/11:30pm 7.4 6.0 7.3 99 0.0 ENE 4 4 2 2 1025.9 1026.0 0.0
26/11:00pm 6.9 6.1 6.6 98 0.1 CALM 0 2 0 1 1026.0 1026.1 0.0
26/10:30pm 7.1 6.3 6.7 97 0.2 CALM 0 2 0 1 1026.2 1026.3 0.0
26/10:00pm 7.0 5.4 6.3 95 0.3 ENE 4 4 2 2 1026.5 1026.6 0.0
26/09:30pm 7.6 6.8 6.7 94 0.4 CALM 0 0 0 0 1026.5 1026.6 0.0
26/09:00pm 8.4 7.4 7.3 93 0.5 ENE 2 6 1 3 1026.6 1026.7 0.0
26/08:30pm 8.8 7.5 7.7 93 0.5 ENE 4 6 2 3 1026.8 1026.9 0.0
26/08:00pm 8.6 6.9 7.5 93 0.5 ENE 6 9 3 5 1026.6 1026.7 0.0
26/07:30pm 8.8 7.4 7.4 91 0.7 ENE 4 6 2 3 1026.8 1026.9 0.0
26/07:00pm 8.8 6.9 6.8 87 1.0 ENE 6 9 3 5 1026.6 1026.7 0.0
26/06:30pm 9.2 7.3 6.5 83 1.3 ENE 6 9 3 5 1026.5 1026.6 0.0
26/06:00pm 9.5 7.0 6.6 82 1.4 ENE 9 13 5 7 1026.4 1026.5 0.0
26/05:30pm 9.5 7.1 6.8 83 1.3 ENE 9 11 5 6 1026.1 1026.2 0.0
26/05:00pm 9.7 7.2 6.6 81 1.5 ENE 9 13 5 7 1025.9 1026.0 0.0

Other Formats:

Comma delimited format used in spreadsheet applications
http://www.bom.gov.au/fwo/IDN60801/IDN60801.94943.axf

JavaScript Object Notation format (JSON) in row-major order
http://www.bom.gov.au/fwo/IDN60801/IDN60801.94943.json